Carpio, North Dakota
Current Conditions -  °F | °C
As of 7:58 PM on Tuesday 21 Oct 2014 (Local Time) from KMIB Reporting Station
Clear Clear  
Wind Chill: 57°   Ceiling: Unl
Heat Index: 57°   Visibility: 10mi
Dew Point: 47°   Wind: 7mph
Humidity: 68%   Direction: 110°ESE
Pressure: 29.59"   Gusts: NA
Location:  48.44°N, 101.71°W
Report Text: KMIB 220058Z AUTO 11006KT 10SM CLR 14/08 A2959 RMK AO2 SLP032 T01410082 CHINO RWY29 $
Loading
Personal Weather Stations






























Interactive Weather Map
Tropical Storm Tracking
New forecast layout! Learn more

10-Day Weather Forecast

Advertisements
Track Severe Weather on mobile